sensor_id;sensor_type;location;lat;lon;timestamp;P1;durP1;ratioP1;P2;durP2;ratioP2
14992;SDS011;7592;51.088;13.732;2023-04-01T00:03:19;1.17;;;0.63;;
14992;SDS011;7592;51.088;13.732;2023-04-01T00:08:12;1.13;;;0.60;;
14992;SDS011;7592;51.088;13.732;2023-04-01T00:13:04;2.13;;;0.63;;
14992;SDS011;7592;51.088;13.732;2023-04-01T00:17:57;0.80;;;0.40;;
14992;SDS011;7592;51.088;13.732;2023-04-01T00:22:49;0.83;;;0.40;;
14992;SDS011;7592;51.088;13.732;2023-04-01T00:27:41;4.90;;;0.97;;
14992;SDS011;7592;51.088;13.732;2023-04-01T00:32:34;2.13;;;0.80;;
14992;SDS011;7592;51.088;13.732;2023-04-01T00:37:27;3.40;;;0.63;;
14992;SDS011;7592;51.088;13.732;2023-04-01T00:42:19;1.70;;;0.67;;
14992;SDS011;7592;51.088;13.732;2023-04-01T00:47:11;2.93;;;0.90;;
14992;SDS011;7592;51.088;13.732;2023-04-01T00:52:05;0.67;;;0.60;;
14992;SDS011;7592;51.088;13.732;2023-04-01T00:57:07;3.70;;;1.00;;
14992;SDS011;7592;51.088;13.732;2023-04-01T01:02:04;1.67;;;0.50;;
14992;SDS011;7592;51.088;13.732;2023-04-01T01:12:50;2.20;;;0.70;;
14992;SDS011;7592;51.088;13.732;2023-04-01T01:18:06;2.63;;;1.00;;
14992;SDS011;7592;51.088;13.732;2023-04-01T01:38:54;3.20;;;0.57;;
14992;SDS011;7592;51.088;13.732;2023-04-01T01:43:48;4.57;;;0.53;;
14992;SDS011;7592;51.088;13.732;2023-04-01T01:48:42;1.80;;;0.60;;
14992;SDS011;7592;51.088;13.732;2023-04-01T01:53:36;2.63;;;0.60;;
14992;SDS011;7592;51.088;13.732;2023-04-01T01:58:30;1.27;;;0.70;;
14992;SDS011;7592;51.088;13.732;2023-04-01T02:03:23;2.73;;;0.63;;
14992;SDS011;7592;51.088;13.732;2023-04-01T02:08:20;1.50;;;0.50;;
14992;SDS011;7592;51.088;13.732;2023-04-01T02:13:17;3.17;;;0.90;;
14992;SDS011;7592;51.088;13.732;2023-04-01T02:18:16;1.60;;;0.60;;
14992;SDS011;7592;51.088;13.732;2023-04-01T02:23:10;3.67;;;0.60;;
14992;SDS011;7592;51.088;13.732;2023-04-01T02:28:06;1.13;;;0.50;;
14992;SDS011;7592;51.088;13.732;2023-04-01T02:33:03;4.00;;;0.60;;
14992;SDS011;7592;51.088;13.732;2023-04-01T02:37:56;4.77;;;0.70;;
14992;SDS011;7592;51.088;13.732;2023-04-01T02:42:49;3.80;;;0.80;;
14992;SDS011;7592;51.088;13.732;2023-04-01T02:47:41;4.43;;;0.90;;
14992;SDS011;7592;51.088;13.732;2023-04-01T02:52:33;3.53;;;0.93;;
14992;SDS011;7592;51.088;13.732;2023-04-01T02:57:26;3.20;;;0.80;;
14992;SDS011;7592;51.088;13.732;2023-04-01T03:02:18;0.80;;;0.50;;
14992;SDS011;7592;51.088;13.732;2023-04-01T03:07:10;3.33;;;0.70;;
14992;SDS011;7592;51.088;13.732;2023-04-01T03:12:02;3.03;;;0.60;;
14992;SDS011;7592;51.088;13.732;2023-04-01T03:16:59;4.73;;;1.07;;
14992;SDS011;7592;51.088;13.732;2023-04-01T03:21:52;2.13;;;0.60;;
14992;SDS011;7592;51.088;13.732;2023-04-01T03:26:46;3.90;;;1.07;;
14992;SDS011;7592;51.088;13.732;2023-04-01T03:31:38;2.97;;;0.87;;
14992;SDS011;7592;51.088;13.732;2023-04-01T03:36:30;3.47;;;0.70;;
14992;SDS011;7592;51.088;13.732;2023-04-01T03:41:23;2.63;;;1.03;;
14992;SDS011;7592;51.088;13.732;2023-04-01T03:46:19;3.70;;;0.83;;
14992;SDS011;7592;51.088;13.732;2023-04-01T03:51:13;2.30;;;0.80;;
14992;SDS011;7592;51.088;13.732;2023-04-01T03:56:07;4.30;;;1.20;;
14992;SDS011;7592;51.088;13.732;2023-04-01T04:01:00;3.77;;;0.70;;
14992;SDS011;7592;51.088;13.732;2023-04-01T04:05:55;2.40;;;0.53;;
14992;SDS011;7592;51.088;13.732;2023-04-01T04:10:53;1.47;;;0.67;;
14992;SDS011;7592;51.088;13.732;2023-04-01T04:15:47;2.17;;;0.63;;
14992;SDS011;7592;51.088;13.732;2023-04-01T04:20:43;2.10;;;0.60;;
14992;SDS011;7592;51.088;13.732;2023-04-01T04:25:37;2.17;;;0.60;;
14992;SDS011;7592;51.088;13.732;2023-04-01T04:30:29;2.87;;;0.80;;
14992;SDS011;7592;51.088;13.732;2023-04-01T04:35:22;2.83;;;0.70;;
14992;SDS011;7592;51.088;13.732;2023-04-01T04:40:15;4.00;;;0.83;;
14992;SDS011;7592;51.088;13.732;2023-04-01T04:45:07;2.13;;;1.00;;
14992;SDS011;7592;51.088;13.732;2023-04-01T04:50:04;4.03;;;0.90;;
14992;SDS011;7592;51.088;13.732;2023-04-01T04:54:56;4.93;;;1.00;;
14992;SDS011;7592;51.088;13.732;2023-04-01T04:59:48;1.10;;;0.70;;
14992;SDS011;7592;51.088;13.732;2023-04-01T05:05:01;0.60;;;0.50;;
14992;SDS011;7592;51.088;13.732;2023-04-01T05:09:54;2.60;;;0.90;;
14992;SDS011;7592;51.088;13.732;2023-04-01T05:14:46;3.33;;;0.73;;
14992;SDS011;7592;51.088;13.732;2023-04-01T05:19:38;2.47;;;0.70;;
14992;SDS011;7592;51.088;13.732;2023-04-01T05:24:31;3.63;;;1.13;;
14992;SDS011;7592;51.088;13.732;2023-04-01T05:29:24;1.20;;;0.70;;
14992;SDS011;7592;51.088;13.732;2023-04-01T05:34:24;2.87;;;1.07;;
14992;SDS011;7592;51.088;13.732;2023-04-01T05:39:17;1.90;;;0.90;;
14992;SDS011;7592;51.088;13.732;2023-04-01T05:44:10;1.13;;;0.60;;
14992;SDS011;7592;51.088;13.732;2023-04-01T05:49:03;3.17;;;0.67;;
14992;SDS011;7592;51.088;13.732;2023-04-01T05:53:57;0.90;;;0.73;;
14992;SDS011;7592;51.088;13.732;2023-04-01T05:58:50;3.83;;;0.70;;
14992;SDS011;7592;51.088;13.732;2023-04-01T06:03:46;1.60;;;0.70;;
14992;SDS011;7592;51.088;13.732;2023-04-01T06:08:39;1.70;;;0.60;;
14992;SDS011;7592;51.088;13.732;2023-04-01T06:39:25;3.70;;;0.90;;
14992;SDS011;7592;51.088;13.732;2023-04-01T06:55:44;3.20;;;0.53;;
14992;SDS011;7592;51.088;13.732;2023-04-01T07:01:10;3.60;;;0.67;;
14992;SDS011;7592;51.088;13.732;2023-04-01T07:06:16;1.63;;;0.70;;
14992;SDS011;7592;51.088;13.732;2023-04-01T07:11:28;1.40;;;0.60;;
14992;SDS011;7592;51.088;13.732;2023-04-01T07:22:04;3.80;;;0.70;;
14992;SDS011;7592;51.088;13.732;2023-04-01T07:27:41;1.73;;;0.70;;
14992;SDS011;7592;51.088;13.732;2023-04-01T07:37:47;2.90;;;0.70;;
14992;SDS011;7592;51.088;13.732;2023-04-01T07:58:16;4.43;;;0.80;;
14992;SDS011;7592;51.088;13.732;2023-04-01T08:24:43;2.53;;;0.50;;
14992;SDS011;7592;51.088;13.732;2023-04-01T08:29:50;1.23;;;0.57;;
14992;SDS011;7592;51.088;13.732;2023-04-01T08:35:02;4.97;;;1.00;;
14992;SDS011;7592;51.088;13.732;2023-04-01T08:40:10;2.60;;;1.00;;
14992;SDS011;7592;51.088;13.732;2023-04-01T09:06:12;2.00;;;0.50;;
14992;SDS011;7592;51.088;13.732;2023-04-01T09:38:30;1.17;;;0.30;;
14992;SDS011;7592;51.088;13.732;2023-04-01T09:43:58;4.57;;;0.70;;
14992;SDS011;7592;51.088;13.732;2023-04-01T10:19:45;1.13;;;0.40;;
14992;SDS011;7592;51.088;13.732;2023-04-01T10:35:28;1.43;;;0.40;;
14992;SDS011;7592;51.088;13.732;2023-04-01T11:30:02;1.70;;;1.00;;
14992;SDS011;7592;51.088;13.732;2023-04-01T11:40:35;2.37;;;1.10;;
14992;SDS011;7592;51.088;13.732;2023-04-01T11:56:27;1.07;;;0.30;;
14992;SDS011;7592;51.088;13.732;2023-04-01T12:01:24;0.60;;;0.50;;
14992;SDS011;7592;51.088;13.732;2023-04-01T12:06:21;0.80;;;0.30;;
14992;SDS011;7592;51.088;13.732;2023-04-01T12:11:27;0.70;;;0.40;;
14992;SDS011;7592;51.088;13.732;2023-04-01T12:16:33;0.40;;;0.37;;
14992;SDS011;7592;51.088;13.732;2023-04-01T12:21:45;0.50;;;0.50;;
14992;SDS011;7592;51.088;13.732;2023-04-01T13:13:46;1.70;;;0.40;;
14992;SDS011;7592;51.088;13.732;2023-04-01T13:29:14;1.73;;;0.60;;
14992;SDS011;7592;51.088;13.732;2023-04-01T13:39:27;0.30;;;0.30;;
14992;SDS011;7592;51.088;13.732;2023-04-01T13:55:38;0.43;;;0.40;;
14992;SDS011;7592;51.088;13.732;2023-04-01T14:11:03;1.87;;;0.40;;
14992;SDS011;7592;51.088;13.732;2023-04-01T14:37:17;0.50;;;0.50;;
14992;SDS011;7592;51.088;13.732;2023-04-01T14:58:16;0.50;;;0.40;;
14992;SDS011;7592;51.088;13.732;2023-04-01T15:03:22;0.37;;;0.30;;
14992;SDS011;7592;51.088;13.732;2023-04-01T15:14:08;0.30;;;0.20;;
14992;SDS011;7592;51.088;13.732;2023-04-01T15:19:36;0.20;;;0.20;;
14992;SDS011;7592;51.088;13.732;2023-04-01T15:35:25;0.20;;;0.20;;
14992;SDS011;7592;51.088;13.732;2023-04-01T15:45:52;0.37;;;0.37;;
14992;SDS011;7592;51.088;13.732;2023-04-01T15:51:28;0.30;;;0.30;;
14992;SDS011;7592;51.088;13.732;2023-04-01T16:01:47;0.70;;;0.30;;
14992;SDS011;7592;51.088;13.732;2023-04-01T16:06:59;0.20;;;0.20;;
14992;SDS011;7592;51.088;13.732;2023-04-01T16:22:25;0.27;;;0.27;;
14992;SDS011;7592;51.088;13.732;2023-04-01T16:27:45;0.80;;;0.40;;
14992;SDS011;7592;51.088;13.732;2023-04-01T16:32:41;0.60;;;0.50;;
14992;SDS011;7592;51.088;13.732;2023-04-01T16:47:40;0.33;;;0.33;;
14992;SDS011;7592;51.088;13.732;2023-04-01T16:52:43;0.40;;;0.40;;
14992;SDS011;7592;51.088;13.732;2023-04-01T16:57:58;1.27;;;0.40;;
14992;SDS011;7592;51.088;13.732;2023-04-01T17:08:08;0.70;;;0.70;;
14992;SDS011;7592;51.088;13.732;2023-04-01T17:13:46;0.70;;;0.53;;
14992;SDS011;7592;51.088;13.732;2023-04-01T17:19:01;1.43;;;0.83;;
14992;SDS011;7592;51.088;13.732;2023-04-01T17:29:30;0.80;;;0.60;;
14992;SDS011;7592;51.088;13.732;2023-04-01T18:26:22;5.30;;;1.47;;
14992;SDS011;7592;51.088;13.732;2023-04-01T18:31:19;1.30;;;1.20;;
14992;SDS011;7592;51.088;13.732;2023-04-01T19:03:01;8.33;;;6.83;;
14992;SDS011;7592;51.088;13.732;2023-04-01T19:07:54;13.97;;;10.00;;
14992;SDS011;7592;51.088;13.732;2023-04-01T19:28:16;7.47;;;5.77;;
14992;SDS011;7592;51.088;13.732;2023-04-01T19:54:30;2.57;;;2.13;;
14992;SDS011;7592;51.088;13.732;2023-04-01T19:59:46;1.90;;;1.60;;
14992;SDS011;7592;51.088;13.732;2023-04-01T20:04:55;1.53;;;1.43;;
14992;SDS011;7592;51.088;13.732;2023-04-01T20:14:57;3.93;;;3.30;;
14992;SDS011;7592;51.088;13.732;2023-04-01T20:19:55;3.20;;;2.90;;
14992;SDS011;7592;51.088;13.732;2023-04-01T20:24:52;3.00;;;2.70;;
14992;SDS011;7592;51.088;13.732;2023-04-01T20:35:25;2.53;;;2.33;;
14992;SDS011;7592;51.088;13.732;2023-04-01T20:40:26;2.40;;;2.20;;
14992;SDS011;7592;51.088;13.732;2023-04-01T21:16:39;4.10;;;3.80;;
14992;SDS011;7592;51.088;13.732;2023-04-01T21:21:50;3.70;;;3.40;;
14992;SDS011;7592;51.088;13.732;2023-04-01T21:42:47;2.20;;;2.03;;
14992;SDS011;7592;51.088;13.732;2023-04-01T22:09:18;2.83;;;2.63;;
14992;SDS011;7592;51.088;13.732;2023-04-01T22:14:21;2.77;;;2.50;;
14992;SDS011;7592;51.088;13.732;2023-04-01T22:19:39;2.90;;;2.70;;
14992;SDS011;7592;51.088;13.732;2023-04-01T22:30:17;3.37;;;3.07;;
14992;SDS011;7592;51.088;13.732;2023-04-01T22:35:40;3.60;;;3.30;;
14992;SDS011;7592;51.088;13.732;2023-04-01T22:45:33;4.33;;;3.93;;
14992;SDS011;7592;51.088;13.732;2023-04-01T22:50:39;4.33;;;4.03;;
14992;SDS011;7592;51.088;13.732;2023-04-01T22:55:43;5.63;;;5.13;;
14992;SDS011;7592;51.088;13.732;2023-04-01T23:05:40;4.60;;;4.20;;
14992;SDS011;7592;51.088;13.732;2023-04-01T23:10:41;4.03;;;3.73;;
14992;SDS011;7592;51.088;13.732;2023-04-01T23:15:37;4.00;;;3.70;;
14992;SDS011;7592;51.088;13.732;2023-04-01T23:21:07;4.27;;;3.60;;
14992;SDS011;7592;51.088;13.732;2023-04-01T23:36:22;6.00;;;3.63;;
14992;SDS011;7592;51.088;13.732;2023-04-01T23:41:25;3.57;;;3.23;;
14992;SDS011;7592;51.088;13.732;2023-04-01T23:46:21;3.47;;;3.17;;
14992;SDS011;7592;51.088;13.732;2023-04-01T23:51:24;3.53;;;3.27;;
14992;SDS011;7592;51.088;13.732;2023-04-01T23:56:18;7.97;;;6.87;;
